Time;durP1;ratioP1;P1;durP2;ratioP2;P2;SDS_P1;SDS_P2;PMS_P1;PMS_P2;Temp;Humidity;BMP_temperature;BMP_pressure;BME280_temperature;BME280_humidity;BME280_pressure;Samples;Min_cycle;Max_cycle;Signal;HPM_P1;HPM_P2
2021/01/29 00:01:57;;;;;;;93.20;35.57;;;9.40;99.90;;;;;;5036296;28;36638;-77
2021/01/29 00:04:24;;;;;;;86.57;34.67;;;9.50;99.90;;;;;;5029827;28;38521;-76
2021/01/29 00:06:50;;;;;;;85.73;33.77;;;9.40;99.90;;;;;;5043948;28;38900;-74
2021/01/29 00:09:18;;;;;;;93.23;36.10;;;9.50;99.90;;;;;;5031556;28;38075;-75
2021/01/29 00:11:48;;;;;;;71.03;30.80;;;9.50;99.90;;;;;;5033806;28;36904;-74
2021/01/29 00:14:14;;;;;;;113.87;38.87;;;9.50;99.90;;;;;;5039602;27;39608;-75
2021/01/29 00:16:41;;;;;;;89.30;36.23;;;9.50;99.90;;;;;;5033282;28;38414;-76
2021/01/29 00:19:07;;;;;;;75.73;34.37;;;9.50;99.90;;;;;;5031860;28;36630;-74
2021/01/29 00:21:33;;;;;;;86.03;36.80;;;9.50;99.90;;;;;;5038079;28;36436;-76
2021/01/29 00:23:59;;;;;;;78.93;34.60;;;9.50;99.90;;;;;;5028000;28;36761;-75
2021/01/29 00:26:25;;;;;;;101.30;38.90;;;9.50;99.90;;;;;;5030653;28;39227;-75
2021/01/29 00:28:51;;;;;;;128.93;47.17;;;9.50;99.90;;;;;;5039214;27;38248;-75
2021/01/29 00:31:18;;;;;;;120.67;44.03;;;9.50;99.90;;;;;;5035425;28;37185;-75
2021/01/29 00:33:44;;;;;;;101.53;39.93;;;9.50;99.90;;;;;;5035056;28;37815;-77
2021/01/29 00:36:10;;;;;;;92.83;40.33;;;9.50;99.90;;;;;;5041312;28;38951;-76
2021/01/29 00:38:36;;;;;;;103.07;42.13;;;9.50;99.90;;;;;;5031087;28;39177;-77
2021/01/29 00:41:02;;;;;;;103.10;44.53;;;9.60;99.90;;;;;;5039643;28;36948;-78
2021/01/29 00:43:28;;;;;;;100.23;41.23;;;9.60;99.90;;;;;;5036982;28;40725;-77
2021/01/29 00:45:54;;;;;;;105.17;40.47;;;9.60;99.90;;;;;;5043203;28;38002;-74
2021/01/29 00:48:20;;;;;;;92.43;40.33;;;9.60;99.90;;;;;;5032473;28;39516;-74
2021/01/29 00:50:46;;;;;;;88.73;39.37;;;9.60;99.90;;;;;;5037782;27;38143;-78
2021/01/29 00:53:12;;;;;;;115.60;42.87;;;9.70;99.90;;;;;;5039587;28;39453;-76
2021/01/29 00:55:39;;;;;;;115.70;43.50;;;9.70;99.90;;;;;;5037271;28;39400;-77
2021/01/29 00:58:05;;;;;;;103.57;42.07;;;9.70;99.90;;;;;;5037153;28;38716;-76
2021/01/29 01:00:31;;;;;;;115.07;42.93;;;9.70;99.90;;;;;;5030200;28;38522;-79
2021/01/29 01:02:57;;;;;;;98.97;40.37;;;9.70;99.90;;;;;;5035942;28;37784;-77
2021/01/29 01:05:24;;;;;;;99.60;41.33;;;9.70;99.90;;;;;;5035462;28;38227;-77
2021/01/29 01:07:51;;;;;;;107.13;41.33;;;9.70;99.90;;;;;;5036131;28;38335;-78
2021/01/29 01:10:19;;;;;;;93.90;38.37;;;9.70;99.90;;;;;;5036286;28;38056;-76
2021/01/29 01:12:45;;;;;;;92.30;38.73;;;9.70;99.90;;;;;;5030672;28;39712;-76
2021/01/29 01:15:23;;;;;;;103.70;38.97;;;9.70;99.90;;;;;;5038715;28;38314;-78
2021/01/29 01:17:50;;;;;;;91.40;39.17;;;9.80;99.90;;;;;;5028549;28;38667;-78
2021/01/29 01:20:20;;;;;;;88.60;37.80;;;9.70;99.90;;;;;;5032730;28;39102;-75
2021/01/29 01:22:47;;;;;;;99.93;37.83;;;9.70;99.90;;;;;;5037374;28;39818;-77
2021/01/29 01:25:13;;;;;;;94.77;36.07;;;9.70;99.90;;;;;;5033052;28;36855;-79
2021/01/29 01:27:39;;;;;;;82.90;32.40;;;9.80;99.90;;;;;;5037660;28;38460;-76
2021/01/29 01:30:13;;;;;;;84.93;34.27;;;9.80;99.90;;;;;;5037021;28;37602;-77
2021/01/29 01:32:40;;;;;;;101.43;35.73;;;9.80;99.90;;;;;;5042323;28;40896;-77
2021/01/29 01:35:08;;;;;;;82.93;34.70;;;9.80;99.90;;;;;;5031969;28;40133;-77
2021/01/29 01:37:34;;;;;;;80.07;33.13;;;9.80;99.90;;;;;;5034485;28;37398;-78
2021/01/29 01:40:00;;;;;;;87.60;31.83;;;9.90;99.90;;;;;;5047907;28;37935;-76
2021/01/29 01:42:26;;;;;;;77.50;31.90;;;9.90;99.90;;;;;;5034168;28;40038;-75
2021/01/29 01:44:52;;;;;;;86.30;34.37;;;9.80;99.90;;;;;;5041368;28;38452;-75
2021/01/29 01:47:21;;;;;;;69.13;30.43;;;9.80;99.90;;;;;;5042107;28;36971;-73
2021/01/29 01:49:50;;;;;;;84.70;30.60;;;9.80;99.90;;;;;;5032723;28;35804;-75
2021/01/29 01:52:24;;;;;;;59.20;28.20;;;9.80;99.90;;;;;;5031443;28;37592;-74
2021/01/29 01:55:02;;;;;;;70.83;27.67;;;9.90;99.90;;;;;;5049679;28;38500;-76
2021/01/29 01:57:29;;;;;;;71.13;28.63;;;9.80;99.90;;;;;;5043415;28;37107;-75
2021/01/29 02:00:05;;;;;;;69.77;26.77;;;9.90;99.90;;;;;;5036001;28;37437;-75
2021/01/29 02:02:35;;;;;;;56.50;25.17;;;9.90;99.90;;;;;;5028378;28;46991;-78
2021/01/29 02:05:11;;;;;;;59.63;23.10;;;9.90;99.90;;;;;;5045011;28;38761;-76
2021/01/29 02:07:57;;;;;;;58.23;23.60;;;9.90;99.90;;;;;;5034566;28;46965;-75
2021/01/29 02:10:24;;;;;;;58.63;23.13;;;9.90;99.90;;;;;;5032449;28;38244;-75
2021/01/29 02:12:51;;;;;;;46.63;22.57;;;9.90;99.90;;;;;;5037038;28;39787;-75
2021/01/29 02:15:20;;;;;;;56.27;21.70;;;9.90;99.90;;;;;;5032558;28;37209;-78
2021/01/29 02:18:15;;;;;;;37.60;19.27;;;9.90;99.90;;;;;;5045700;28;37573;-75
2021/01/29 02:21:18;;;;;;;32.23;17.87;;;9.90;99.90;;;;;;5050620;28;47041;-76
2021/01/29 02:24:11;;;;;;;35.75;17.67;;;9.90;99.90;;;;;;5030692;28;48532;-75
2021/01/29 02:27:15;;;;;;;33.97;18.37;;;9.90;99.90;;;;;;5038670;28;48814;-75
2021/01/29 02:30:06;;;;;;;28.43;14.10;;;9.90;99.90;;;;;;5039394;28;46872;-78
2021/01/29 02:33:09;;;;;;;28.70;14.70;;;9.90;99.90;;;;;;5051662;28;48356;-77
2021/01/29 02:36:10;;;;;;;25.27;13.23;;;9.90;99.90;;;;;;5050834;28;47244;-79
2021/01/29 02:39:18;;;;;;;23.17;12.80;;;9.90;99.90;;;;;;5042903;28;47203;-74
2021/01/29 02:41:53;;;;;;;18.87;11.23;;;10.00;99.90;;;;;;5020683;28;47367;-77
2021/01/29 02:44:47;;;;;;;20.80;11.80;;;10.00;99.90;;;;;;5016563;28;36236;-77
2021/01/29 02:47:25;;;;;;;20.20;11.20;;;10.00;99.90;;;;;;5034641;28;38718;-74
2021/01/29 02:50:25;;;;;;;26.37;13.13;;;10.00;99.90;;;;;;5049164;28;37383;-75
2021/01/29 02:53:14;;;;;;;23.90;13.03;;;10.00;99.90;;;;;;5034972;28;47165;-76
2021/01/29 02:56:15;;;;;;;23.67;13.57;;;10.00;99.90;;;;;;5036576;28;47477;-76
2021/01/29 02:58:55;;;;;;;22.10;13.77;;;10.00;99.90;;;;;;5014190;28;47397;-76
2021/01/29 03:01:34;;;;;;;25.67;13.80;;;10.00;99.90;;;;;;5018353;28;39309;-76
2021/01/29 03:04:10;;;;;;;23.90;14.70;;;10.00;99.90;;;;;;5026525;28;38165;-78
2021/01/29 03:07:05;;;;;;;24.93;15.13;;;10.00;99.90;;;;;;5058425;27;49374;-78
2021/01/29 03:09:38;;;;;;;24.27;16.67;;;10.00;99.90;;;;;;5016876;28;48499;-79
2021/01/29 03:12:16;;;;;;;28.57;17.37;;;10.00;99.90;;;;;;5025410;28;38114;-79
2021/01/29 03:14:56;;;;;;;27.47;17.40;;;10.00;99.90;;;;;;5059379;28;37544;-80
2021/01/29 03:17:29;;;;;;;28.23;16.50;;;9.90;99.90;;;;;;5023120;28;37710;-79
2021/01/29 03:20:24;;;;;;;;;;;9.90;99.90;;;;;;5019120;28;40280;-77
2021/01/29 03:22:59;;;;;;;21.23;15.00;;;9.90;99.90;;;;;;5015502;28;48620;-76
2021/01/29 03:25:30;;;;;;;25.67;16.33;;;9.90;99.90;;;;;;5032239;28;39443;-78
2021/01/29 03:28:08;;;;;;;21.20;15.03;;;9.90;99.90;;;;;;5038097;28;38270;-77
2021/01/29 03:30:39;;;;;;;22.77;15.90;;;9.90;99.90;;;;;;5051038;28;46958;-78
2021/01/29 03:33:07;;;;;;;20.90;14.53;;;9.90;99.90;;;;;;5050562;27;39336;-79
2021/01/29 03:35:40;;;;;;;23.53;15.67;;;9.90;99.90;;;;;;5039332;28;37036;-81
2021/01/29 03:38:16;;;;;;;28.23;16.23;;;9.90;99.90;;;;;;5040618;28;37626;-74
2021/01/29 03:40:46;;;;;;;18.00;13.77;;;10.00;99.90;;;;;;5041805;28;38922;-77
2021/01/29 03:43:15;;;;;;;22.80;14.30;;;10.00;99.90;;;;;;5038573;28;39016;-77
2021/01/29 03:45:48;;;;;;;19.20;13.37;;;10.00;99.90;;;;;;5048332;28;38675;-75
2021/01/29 03:48:30;;;;;;;21.92;12.95;;;10.00;99.90;;;;;;5036337;28;35474;-76
2021/01/29 03:51:15;;;;;;;14.40;11.43;;;10.00;99.90;;;;;;5063798;27;38779;-77
2021/01/29 03:54:18;;;;;;;23.27;13.70;;;10.00;99.90;;;;;;5036977;28;48134;-74
2021/01/29 03:57:23;;;;;;;14.50;10.27;;;10.00;99.90;;;;;;5035091;27;47596;-75
2021/01/29 04:00:09;;;;;;;14.20;10.50;;;10.00;99.90;;;;;;5030748;28;48447;-76
2021/01/29 04:03:02;;;;;;;14.77;10.13;;;10.00;99.90;;;;;;5040365;28;47183;-76
2021/01/29 04:05:51;;;;;;;17.70;10.73;;;10.00;99.90;;;;;;5070830;28;46171;-77
2021/01/29 04:08:42;;;;;;;18.97;10.93;;;10.00;99.90;;;;;;5040089;27;38504;-76
2021/01/29 04:11:15;;;;;;;14.83;7.77;;;10.00;99.90;;;;;;5035108;27;37580;-75
2021/01/29 04:13:46;;;;;;;12.07;6.72;;;10.00;99.90;;;;;;5041981;28;37641;-76
2021/01/29 04:16:18;;;;;;;12.03;5.77;;;9.90;99.90;;;;;;5043732;28;38875;-75
2021/01/29 04:18:50;;;;;;;12.68;5.70;;;9.90;99.90;;;;;;5031957;28;37619;-78
2021/01/29 04:21:23;;;;;;;12.55;5.72;;;9.80;99.90;;;;;;5036267;28;36168;-77
2021/01/29 04:24:07;;;;;;;11.33;6.70;;;9.80;99.90;;;;;;5033407;28;38868;-77
2021/01/29 04:26:38;;;;;;;10.47;4.80;;;9.80;99.90;;;;;;5036206;27;48699;-77
2021/01/29 04:29:18;;;;;;;9.17;4.50;;;9.70;99.90;;;;;;5067247;28;38023;-76
2021/01/29 04:31:47;;;;;;;11.43;4.20;;;9.70;99.90;;;;;;5035296;28;36884;-76
2021/01/29 04:34:18;;;;;;;10.43;3.30;;;9.70;99.90;;;;;;5039914;28;37696;-75
2021/01/29 04:36:48;;;;;;;11.80;3.40;;;9.60;99.90;;;;;;5028742;28;38698;-77
2021/01/29 04:39:22;;;;;;;10.13;3.40;;;9.60;99.90;;;;;;5037519;28;37816;-76
2021/01/29 04:42:06;;;;;;;7.83;2.60;;;9.60;99.90;;;;;;5052692;28;36029;-75
2021/01/29 04:44:44;;;;;;;10.17;2.10;;;9.60;99.90;;;;;;5019427;28;47427;-75
2021/01/29 04:47:47;;;;;;;10.80;2.43;;;9.50;99.90;;;;;;5025127;28;38437;-74
2021/01/29 04:50:20;;;;;;;;;;;9.60;99.90;;;;;;5002241;28;38981;-75
2021/01/29 04:53:05;;;;;;;7.97;1.93;;;9.60;99.90;;;;;;5008199;28;38927;-74
2021/01/29 04:55:50;;;;;;;6.43;1.90;;;9.50;99.90;;;;;;5009349;28;47200;-76
2021/01/29 04:58:28;;;;;;;11.23;2.60;;;9.50;99.90;;;;;;5017040;28;38321;-77
2021/01/29 05:01:21;;;;;;;8.70;2.10;;;9.50;99.90;;;;;;5030344;28;39028;-73
2021/01/29 05:04:15;;;;;;;9.97;2.00;;;9.50;99.90;;;;;;5038431;28;46339;-74
2021/01/29 05:06:48;;;;;;;17.27;2.03;;;9.50;99.90;;;;;;5054101;28;47514;-74
2021/01/29 05:09:32;;;;;;;12.70;2.10;;;9.50;99.90;;;;;;5027052;28;37295;-74
2021/01/29 05:12:07;;;;;;;15.67;2.00;;;9.50;99.90;;;;;;5022657;28;38183;-73
2021/01/29 05:14:52;;;;;;;14.10;1.60;;;9.50;99.90;;;;;;5020007;28;46995;-73
2021/01/29 05:17:24;;;;;;;13.70;2.10;;;9.50;99.90;;;;;;5043866;28;39252;-74
2021/01/29 05:20:14;;;;;;;15.20;2.35;;;9.50;99.90;;;;;;5036802;28;38307;-74
2021/01/29 05:22:55;;;;;;;19.73;2.03;;;9.50;99.90;;;;;;5030812;28;47286;-75
2021/01/29 05:25:34;;;;;;;19.13;2.33;;;9.50;99.90;;;;;;5015452;28;38515;-75
2021/01/29 05:28:14;;;;;;;19.30;2.07;;;9.50;99.90;;;;;;5024492;28;40626;-75
2021/01/29 05:30:48;;;;;;;23.93;2.77;;;9.50;99.90;;;;;;5013353;28;47446;-77
2021/01/29 05:33:31;;;;;;;16.60;1.90;;;9.40;99.90;;;;;;5017177;28;38052;-74
2021/01/29 05:36:21;;;;;;;15.83;2.40;;;9.40;99.90;;;;;;5014164;28;37183;-77
2021/01/29 05:39:03;;;;;;;22.00;2.60;;;9.50;99.90;;;;;;5022005;28;48263;-77
2021/01/29 05:41:50;;;;;;;18.40;1.60;;;9.50;99.90;;;;;;5029194;28;47269;-77
2021/01/29 05:44:51;;;;;;;16.07;2.07;;;9.50;99.90;;;;;;5009954;28;38064;-79
2021/01/29 05:47:34;;;;;;;14.87;2.63;;;9.40;99.90;;;;;;4991794;28;37881;-77
2021/01/29 05:50:27;;;;;;;22.02;2.25;;;9.50;99.90;;;;;;5017321;28;39520;-76
2021/01/29 05:53:28;;;;;;;20.25;2.60;;;9.50;99.90;;;;;;5014359;28;47170;-76
2021/01/29 05:56:03;;;;;;;15.73;2.27;;;9.50;99.90;;;;;;5028097;28;48422;-75
2021/01/29 05:58:32;;;;;;;20.90;2.40;;;9.50;99.90;;;;;;5007652;28;48260;-75
2021/01/29 06:01:35;;;;;;;13.63;2.60;;;9.40;99.90;;;;;;5031796;28;41030;-74
2021/01/29 06:04:07;;;;;;;16.03;2.80;;;9.50;99.90;;;;;;5032941;28;47385;-76
2021/01/29 06:06:55;;;;;;;17.80;3.10;;;9.50;99.90;;;;;;5032630;28;37113;-74
2021/01/29 06:09:39;;;;;;;20.80;3.00;;;9.50;99.90;;;;;;5030109;28;38895;-74
2021/01/29 06:12:40;;;;;;;17.50;3.93;;;9.50;99.90;;;;;;5047337;28;37904;-76
2021/01/29 06:15:31;;;;;;;21.93;3.13;;;9.60;99.90;;;;;;5016179;28;39336;-76
2021/01/29 06:18:35;;;;;;;25.80;3.10;;;9.60;99.90;;;;;;5018438;28;38674;-75
2021/01/29 06:21:16;;;;;;;21.77;4.20;;;9.60;99.90;;;;;;5016844;28;48965;-73
2021/01/29 06:23:54;;;;;;;27.67;4.53;;;9.60;99.90;;;;;;5013946;28;38965;-74
2021/01/29 06:27:23;;;;;;;33.33;4.23;;;9.60;99.90;;;;;;5032320;28;38038;-76
2021/01/29 06:30:10;;;;;;;30.07;5.67;;;9.60;99.90;;;;;;4979307;28;47279;-75
2021/01/29 06:33:00;;;;;;;26.23;4.40;;;9.60;99.90;;;;;;4999105;28;48585;-74
2021/01/29 06:36:06;;;;;;;36.10;6.20;;;9.60;99.90;;;;;;5024478;28;41000;-74
2021/01/29 06:38:54;;;;;;;36.20;5.10;;;9.60;99.90;;;;;;5014623;28;49390;-74
2021/01/29 06:41:47;;;;;;;37.73;5.13;;;9.60;99.90;;;;;;5027457;28;38966;-74
2021/01/29 06:44:31;;;;;;;34.17;4.47;;;9.60;99.90;;;;;;5028972;28;37301;-74
2021/01/29 06:47:06;;;;;;;42.83;7.70;;;9.60;99.90;;;;;;5014766;28;39823;-75
2021/01/29 06:49:51;;;;;;;37.50;5.47;;;9.60;99.90;;;;;;5017040;28;45814;-74
2021/01/29 06:52:19;;;;;;;38.83;6.97;;;9.50;99.90;;;;;;5031004;28;38409;-74
2021/01/29 06:55:07;;;;;;;50.83;9.70;;;9.50;99.90;;;;;;5022171;28;37196;-74
2021/01/29 06:57:48;;;;;;;52.90;8.27;;;9.50;99.90;;;;;;5026452;28;47190;-75
2021/01/29 07:00:35;;;;;;;49.50;6.83;;;9.50;99.90;;;;;;5024900;28;39747;-74
2021/01/29 07:03:29;;;;;;;53.10;5.87;;;9.50;99.90;;;;;;5033620;28;38847;-74
2021/01/29 07:06:24;;;;;;;55.27;7.70;;;9.50;99.90;;;;;;5014460;28;47522;-75
2021/01/29 07:09:03;;;;;;;60.47;6.57;;;9.40;99.90;;;;;;5032285;28;47310;-73
2021/01/29 07:11:54;;;;;;;55.10;7.63;;;9.40;99.90;;;;;;5028680;28;47761;-75
2021/01/29 07:14:22;;;;;;;51.50;8.40;;;9.40;99.90;;;;;;5034172;28;39568;-74
2021/01/29 07:17:11;;;;;;;58.70;7.63;;;9.40;99.90;;;;;;5008557;28;38152;-75
2021/01/29 07:19:58;;;;;;;52.30;8.07;;;9.40;99.90;;;;;;5015165;28;47164;-75
2021/01/29 07:22:41;;;;;;;57.17;7.80;;;9.40;99.90;;;;;;5015365;28;37822;-76
2021/01/29 07:25:14;;;;;;;54.70;7.80;;;9.40;99.90;;;;;;5017751;28;38125;-74
2021/01/29 07:27:59;;;;;;;64.80;9.40;;;9.40;99.90;;;;;;5027703;28;38918;-76
2021/01/29 07:30:31;;;;;;;52.07;8.27;;;9.40;99.90;;;;;;5032263;28;41011;-75
2021/01/29 07:33:05;;;;;;;57.80;7.65;;;9.40;99.90;;;;;;5021696;28;39265;-76
2021/01/29 07:35:46;;;;;;;56.40;7.13;;;9.40;99.90;;;;;;5014332;28;47422;-76
2021/01/29 07:38:54;;;;;;;56.13;8.87;;;9.40;99.90;;;;;;5030376;28;37117;-75
2021/01/29 07:41:53;;;;;;;49.50;7.40;;;9.40;99.90;;;;;;5018991;28;40758;-76
2021/01/29 07:44:19;;;;;;;63.87;9.50;;;9.40;99.90;;;;;;5019014;28;38098;-77
2021/01/29 07:46:54;;;;;;;49.73;7.30;;;9.50;99.90;;;;;;5034098;28;38515;-74
2021/01/29 07:49:53;;;;;;;44.90;7.53;;;9.50;99.90;;;;;;5007521;28;37488;-74
2021/01/29 07:52:30;;;;;;;47.80;7.63;;;9.50;99.90;;;;;;5004789;28;40795;-75
2021/01/29 07:55:05;;;;;;;44.87;6.70;;;9.40;99.90;;;;;;5019047;28;37828;-76
2021/01/29 07:57:48;;;;;;;58.53;8.30;;;9.40;99.90;;;;;;5019891;28;48415;-74
2021/01/29 08:00:25;;;;;;;61.67;9.90;;;9.40;99.90;;;;;;5022171;28;38890;-74
2021/01/29 08:03:21;;;;;;;50.37;8.50;;;9.40;99.90;;;;;;5038293;28;39964;-76
2021/01/29 08:06:09;;;;;;;46.13;7.23;;;9.40;99.90;;;;;;5014512;28;48999;-73
2021/01/29 08:08:48;;;;;;;45.37;6.40;;;9.50;99.90;;;;;;5035808;28;47311;-74
2021/01/29 08:11:16;;;;;;;52.77;6.80;;;9.50;99.90;;;;;;5020831;28;37303;-75
2021/01/29 08:14:02;;;;;;;43.57;7.60;;;9.50;99.90;;;;;;5013115;28;37497;-74
2021/01/29 08:16:49;;;;;;;58.37;8.47;;;9.50;99.90;;;;;;5012709;28;49841;-74
2021/01/29 08:19:27;;;;;;;52.23;7.30;;;9.60;99.90;;;;;;5017001;28;38389;-75
2021/01/29 08:22:18;;;;;;;65.70;8.90;;;9.50;99.90;;;;;;5033510;28;35998;-73
2021/01/29 08:24:59;;;;;;;39.63;7.60;;;9.60;99.90;;;;;;5020042;28;46775;-75
2021/01/29 08:27:55;;;;;;;42.43;6.87;;;9.60;99.90;;;;;;5014818;28;38568;-76
2021/01/29 08:30:44;;;;;;;49.73;7.17;;;9.60;99.90;;;;;;5007970;28;37999;-76
2021/01/29 08:33:16;;;;;;;52.50;8.77;;;9.60;99.90;;;;;;5020966;28;37755;-76
2021/01/29 08:35:51;;;;;;;42.77;6.00;;;9.60;99.90;;;;;;5029541;28;38796;-76
2021/01/29 08:38:26;;;;;;;45.73;6.60;;;9.70;99.90;;;;;;5023037;28;39332;-76
2021/01/29 08:41:07;;;;;;;50.83;6.73;;;9.70;99.90;;;;;;5024648;28;38096;-76
2021/01/29 08:44:12;;;;;;;52.87;9.70;;;9.70;99.90;;;;;;5027763;28;47118;-76
2021/01/29 08:46:47;;;;;;;43.53;7.10;;;9.70;99.90;;;;;;5016413;28;48684;-76
2021/01/29 08:49:28;;;;;;;41.87;7.67;;;9.70;99.90;;;;;;5008668;28;38505;-76
2021/01/29 08:52:31;;;;;;;44.67;7.53;;;9.70;99.90;;;;;;5029547;28;37485;-76
2021/01/29 08:55:16;;;;;;;44.30;7.50;;;9.70;99.90;;;;;;5013394;28;49119;-76
2021/01/29 08:57:53;;;;;;;40.93;6.17;;;9.80;99.90;;;;;;5009920;28;48535;-74
2021/01/29 09:00:25;;;;;;;36.73;7.30;;;9.80;99.90;;;;;;5020009;28;39888;-73
2021/01/29 09:02:51;;;;;;;;;;;9.80;99.90;;;;;;5012916;28;38884;-78
2021/01/29 09:05:23;;;;;;;50.40;6.57;;;9.90;99.90;;;;;;5015198;28;36591;-74
2021/01/29 09:08:00;;;;;;;37.80;6.25;;;9.80;99.90;;;;;;5016002;28;38766;-75
2021/01/29 09:11:05;;;;;;;49.53;7.87;;;9.80;99.90;;;;;;5026040;28;37399;-74
2021/01/29 09:13:34;;;;;;;40.57;7.67;;;9.80;99.90;;;;;;4987586;28;48581;-74
2021/01/29 09:16:29;;;;;;;47.70;8.57;;;9.70;99.90;;;;;;4997025;28;37053;-74
2021/01/29 09:19:17;;;;;;;56.27;9.50;;;9.70;99.90;;;;;;5002912;28;45649;-75
2021/01/29 09:22:02;;;;;;;51.47;7.33;;;9.70;99.90;;;;;;5026748;28;48937;-75
2021/01/29 09:24:32;;;;;;;44.10;6.83;;;9.60;99.90;;;;;;5044673;28;47702;-75
2021/01/29 09:27:23;;;;;;;46.73;7.00;;;9.60;99.90;;;;;;5035323;28;35542;-73
2021/01/29 09:29:57;;;;;;;49.37;7.43;;;9.70;99.90;;;;;;5049756;28;47067;-73
2021/01/29 09:32:52;;;;;;;42.17;7.17;;;9.80;99.90;;;;;;5036026;28;39192;-74
2021/01/29 09:35:28;;;;;;;37.63;5.50;;;9.90;99.90;;;;;;5062274;28;39057;-73
2021/01/29 09:37:56;;;;;;;48.30;6.67;;;9.90;99.90;;;;;;5043261;28;37246;-74
2021/01/29 09:40:33;;;;;;;45.63;8.53;;;9.90;99.90;;;;;;5032543;28;39021;-74
2021/01/29 09:43:12;;;;;;;36.47;6.10;;;9.90;99.90;;;;;;5028988;28;37524;-73
2021/01/29 09:45:40;;;;;;;38.53;5.93;;;10.00;99.90;;;;;;5037141;28;49723;-76
2021/01/29 09:48:11;;;;;;;39.03;6.37;;;10.10;99.90;;;;;;5033403;28;36994;-76
2021/01/29 09:50:39;;;;;;;39.50;6.90;;;10.10;99.90;;;;;;5030161;28;40614;-75
2021/01/29 09:53:05;;;;;;;38.60;5.50;;;10.10;99.90;;;;;;5053614;28;40016;-76
2021/01/29 09:55:46;;;;;;;41.97;7.70;;;10.10;99.90;;;;;;5042771;28;39127;-73
2021/01/29 09:58:34;;;;;;;33.77;5.73;;;10.10;99.90;;;;;;5067763;28;39326;-75
2021/01/29 10:01:15;;;;;;;44.07;6.03;;;10.10;99.90;;;;;;5071564;28;41014;-75
2021/01/29 10:04:04;;;;;;;39.53;7.27;;;10.10;99.90;;;;;;5033673;28;48630;-75
2021/01/29 10:06:49;;;;;;;44.27;6.10;;;10.10;99.90;;;;;;5060212;28;47394;-76
2021/01/29 10:09:20;;;;;;;49.90;7.57;;;10.10;99.90;;;;;;5047454;28;36371;-76
2021/01/29 10:12:01;;;;;;;39.13;7.20;;;10.00;99.90;;;;;;5036990;28;40110;-76
2021/01/29 10:14:40;;;;;;;41.90;6.67;;;9.90;99.90;;;;;;5015435;28;49899;-75
2021/01/29 10:17:22;;;;;;;36.83;6.30;;;10.00;99.90;;;;;;5034983;28;37496;-74
2021/01/29 10:19:57;;;;;;;37.43;6.40;;;10.00;99.90;;;;;;5017367;28;37302;-73
2021/01/29 10:22:56;;;;;;;35.43;6.70;;;10.00;99.90;;;;;;5034888;28;40251;-74
2021/01/29 10:25:42;;;;;;;38.60;6.67;;;10.00;99.90;;;;;;5018901;28;38170;-74
2021/01/29 10:28:31;;;;;;;43.67;6.33;;;10.10;99.90;;;;;;5012663;28;39852;-75
2021/01/29 10:31:04;;;;;;;44.53;7.07;;;10.10;99.90;;;;;;5013841;28;38818;-73
2021/01/29 10:33:36;;;;;;;38.87;5.77;;;10.10;99.90;;;;;;5020540;28;48359;-74
2021/01/29 10:36:27;;;;;;;34.22;6.15;;;10.20;99.90;;;;;;5023147;28;39156;-75
2021/01/29 10:39:04;;;;;;;30.33;5.20;;;10.20;99.90;;;;;;5016439;28;39811;-76
2021/01/29 10:41:42;;;;;;;41.60;6.70;;;10.30;99.90;;;;;;5053060;28;47014;-75
2021/01/29 10:44:22;;;;;;;40.17;6.70;;;10.30;99.90;;;;;;5020670;28;39288;-74
2021/01/29 10:47:18;;;;;;;38.60;5.63;;;10.20;99.90;;;;;;5018302;28;40046;-73
2021/01/29 10:50:05;;;;;;;45.40;8.13;;;10.20;99.90;;;;;;5022409;28;47063;-74
2021/01/29 10:52:37;;;;;;;38.43;7.03;;;10.30;99.90;;;;;;5029285;28;47015;-74
2021/01/29 10:55:23;;;;;;;52.78;6.88;;;10.20;99.90;;;;;;5029195;28;38748;-74
2021/01/29 10:58:17;;;;;;;43.77;7.10;;;10.20;99.90;;;;;;5044163;28;40065;-75
2021/01/29 11:00:52;;;;;;;51.73;7.27;;;10.10;99.90;;;;;;5029498;28;47431;-74
2021/01/29 11:03:40;;;;;;;41.93;7.10;;;10.00;99.90;;;;;;5018214;28;36018;-74
2021/01/29 11:06:13;;;;;;;48.03;8.63;;;10.00;99.90;;;;;;5017923;28;39871;-76
2021/01/29 11:08:42;;;;;;;41.63;7.32;;;9.90;99.90;;;;;;5019003;28;38787;-74
2021/01/29 11:11:21;;;;;;;50.07;7.10;;;9.90;99.90;;;;;;5021521;28;37093;-74
2021/01/29 11:14:09;;;;;;;43.67;7.80;;;9.90;99.90;;;;;;5043508;28;37009;-75
2021/01/29 11:16:47;;;;;;;47.07;7.23;;;10.00;99.90;;;;;;5040197;28;48304;-73
2021/01/29 11:19:21;;;;;;;44.63;7.60;;;10.10;99.90;;;;;;5057307;28;38243;-73
2021/01/29 11:21:54;;;;;;;43.70;6.93;;;10.20;99.90;;;;;;5033430;28;39032;-73
2021/01/29 11:24:49;;;;;;;48.87;6.67;;;10.20;99.90;;;;;;5022992;28;37088;-72
2021/01/29 11:27:20;;;;;;;47.53;6.60;;;10.20;99.90;;;;;;5022737;28;39265;-71
2021/01/29 11:30:09;;;;;;;35.80;5.93;;;10.20;99.90;;;;;;5025770;28;36390;-72
2021/01/29 11:32:38;;;;;;;39.57;8.17;;;10.10;99.90;;;;;;5035476;28;48550;-72
2021/01/29 11:35:31;;;;;;;36.87;6.37;;;10.00;99.90;;;;;;5057124;28;38249;-72
2021/01/29 11:37:58;;;;;;;37.45;6.63;;;10.00;99.90;;;;;;5046431;28;39635;-72
2021/01/29 11:40:39;;;;;;;39.87;6.47;;;9.90;99.90;;;;;;5043954;28;39967;-73
2021/01/29 11:43:11;;;;;;;46.87;7.13;;;9.90;99.90;;;;;;5057013;28;38558;-73
2021/01/29 11:45:51;;;;;;;37.67;5.38;;;9.90;99.90;;;;;;5032000;28;38732;-72
2021/01/29 11:48:44;;;;;;;37.83;6.73;;;9.80;99.90;;;;;;5053349;28;37753;-72
2021/01/29 11:51:21;;;;;;;52.87;6.23;;;9.70;99.90;;;;;;5044171;27;39445;-73
2021/01/29 11:53:47;;;;;;;47.40;6.70;;;9.70;99.90;;;;;;5057901;28;40970;-74
2021/01/29 11:56:29;;;;;;;43.90;7.03;;;9.80;99.90;;;;;;5039321;28;37323;-74
2021/01/29 11:59:31;;;;;;;51.40;7.07;;;9.90;99.90;;;;;;5031536;28;38932;-73
2021/01/29 12:02:10;;;;;;;42.23;7.10;;;9.90;99.90;;;;;;5038768;28;48236;-72
2021/01/29 12:04:42;;;;;;;38.90;6.60;;;9.90;99.90;;;;;;5039278;28;48697;-73
2021/01/29 12:07:40;;;;;;;39.80;6.90;;;9.90;99.90;;;;;;5062073;28;37097;-74
2021/01/29 12:10:34;;;;;;;37.73;5.70;;;9.90;99.90;;;;;;5052237;28;39276;-74
2021/01/29 12:13:22;;;;;;;44.47;7.63;;;9.90;99.90;;;;;;5043932;28;38568;-74
2021/01/29 12:16:00;;;;;;;43.27;8.40;;;10.10;99.90;;;;;;5044192;28;48382;-73
2021/01/29 12:18:29;;;;;;;44.73;6.23;;;10.30;99.90;;;;;;5029494;28;47690;-74
2021/01/29 12:21:10;;;;;;;48.93;6.70;;;10.40;99.90;;;;;;5018852;28;39625;-74
2021/01/29 12:24:13;;;;;;;41.10;7.13;;;10.30;99.90;;;;;;5052502;28;47128;-72
2021/01/29 12:26:57;;;;;;;41.55;7.30;;;10.40;99.90;;;;;;5031580;28;44905;-74
2021/01/29 12:29:43;;;;;;;44.77;6.83;;;10.30;99.90;;;;;;5021690;28;38629;-74
2021/01/29 12:32:22;;;;;;;43.47;6.17;;;10.30;99.90;;;;;;5025660;28;39274;-72
2021/01/29 12:34:57;;;;;;;41.47;6.53;;;10.30;99.90;;;;;;5019937;28;38218;-72
2021/01/29 12:37:57;;;;;;;48.77;7.37;;;10.30;99.90;;;;;;5015497;28;38291;-73
2021/01/29 12:40:41;;;;;;;39.40;6.33;;;10.30;99.90;;;;;;5046256;28;37049;-74
2021/01/29 12:43:24;;;;;;;44.50;6.83;;;10.40;99.90;;;;;;5029473;28;37731;-73
2021/01/29 12:45:59;;;;;;;43.90;6.80;;;10.50;99.90;;;;;;5015412;28;38841;-73
2021/01/29 12:48:41;;;;;;;47.67;6.70;;;10.60;99.90;;;;;;5011046;28;38444;-73
2021/01/29 12:51:27;;;;;;;43.45;6.00;;;10.60;99.90;;;;;;5026865;28;37731;-74
2021/01/29 12:54:35;;;;;;;44.20;6.63;;;10.80;99.90;;;;;;5021917;28;40183;-73
2021/01/29 12:57:11;;;;;;;52.43;7.37;;;11.10;99.90;;;;;;5013139;28;47713;-73
2021/01/29 12:59:58;;;;;;;40.70;6.60;;;11.30;99.90;;;;;;5029630;28;47385;-74
2021/01/29 13:02:43;;;;;;;44.10;7.33;;;11.20;99.90;;;;;;5041528;28;38056;-74
2021/01/29 13:05:38;;;;;;;36.97;7.87;;;11.00;99.90;;;;;;5032573;28;39377;-73
2021/01/29 13:08:21;;;;;;;33.83;5.40;;;11.00;99.90;;;;;;5045235;28;38939;-73
2021/01/29 13:10:54;;;;;;;;;;;11.00;99.90;;;;;;5014397;28;37818;-73
2021/01/29 13:13:36;;;;;;;39.70;5.68;;;11.00;99.90;;;;;;5028552;28;36842;-73
2021/01/29 13:16:18;;;;;;;45.10;6.72;;;11.00;99.90;;;;;;5048221;28;40123;-72
2021/01/29 13:19:03;;;;;;;38.05;6.82;;;10.90;99.90;;;;;;5016188;28;37539;-74
2021/01/29 13:21:46;;;;;;;42.80;6.27;;;10.80;99.90;;;;;;5016027;28;49717;-74
2021/01/29 13:24:42;;;;;;;33.73;6.40;;;10.80;99.90;;;;;;5029380;28;38111;-74
2021/01/29 13:27:14;;;;;;;41.60;5.57;;;10.60;99.90;;;;;;4999432;28;39335;-74
2021/01/29 13:29:40;;;;;;;31.35;5.38;;;10.50;99.90;;;;;;5016261;28;39306;-72
2021/01/29 13:32:34;;;;;;;35.63;5.57;;;10.50;99.90;;;;;;5015549;28;38273;-72
2021/01/29 13:35:06;;;;;;;30.10;5.07;;;10.40;99.90;;;;;;5008981;28;37735;-72
2021/01/29 13:37:32;;;;;;;39.03;6.53;;;10.50;99.90;;;;;;5015642;28;47008;-73
2021/01/29 13:40:26;;;;;;;34.10;5.40;;;10.60;99.90;;;;;;5050272;28;39476;-73
2021/01/29 13:42:54;;;;;;;28.37;4.80;;;10.60;99.90;;;;;;5005843;28;48403;-73
2021/01/29 13:45:31;;;;;;;39.47;5.57;;;10.60;99.90;;;;;;5012051;28;37143;-72
2021/01/29 13:48:07;;;;;;;31.27;4.70;;;10.60;99.90;;;;;;5013052;28;39031;-74